Time;durP1;ratioP1;P1;durP2;ratioP2;P2;SDS_P1;SDS_P2;PMS_P1;PMS_P2;Temp;Humidity;BMP_temperature;BMP_pressure;BME280_temperature;BME280_humidity;BME280_pressure;Samples;Min_cycle;Max_cycle;Signal;HPM_P1;HPM_P2
2023/05/16 00:00:09;;;;;;;17.03;16.43;;;21.90;71.70;;;;;;5054089;28;20467;-57
2023/05/16 00:02:38;;;;;;;17.57;16.73;;;21.90;71.80;;;;;;5053811;28;20441;-58
2023/05/16 00:05:06;;;;;;;15.80;15.00;;;21.80;71.70;;;;;;5054117;28;20447;-58
2023/05/16 00:07:35;;;;;;;16.37;15.87;;;21.80;71.80;;;;;;5053994;28;20523;-57
2023/05/16 00:10:02;;;;;;;15.80;15.30;;;21.80;71.80;;;;;;5054230;28;20521;-57
2023/05/16 00:12:29;;;;;;;15.43;14.93;;;21.80;71.80;;;;;;5053681;28;20497;-56
2023/05/16 00:14:56;;;;;;;15.70;15.10;;;21.80;71.80;;;;;;5054071;28;20486;-58
2023/05/16 00:17:23;;;;;;;16.10;15.60;;;21.80;71.90;;;;;;5053946;28;20475;-59
2023/05/16 00:19:57;;;;;;;15.90;15.40;;;21.80;71.90;;;;;;5053660;28;21087;-56
2023/05/16 00:22:24;;;;;;;15.43;14.93;;;21.80;72.00;;;;;;5053478;28;20487;-57
2023/05/16 00:24:52;;;;;;;15.40;14.90;;;21.80;72.10;;;;;;5053722;28;20869;-58
2023/05/16 00:27:20;;;;;;;15.60;15.10;;;21.80;72.20;;;;;;5053682;28;20477;-59
2023/05/16 00:29:47;;;;;;;15.07;14.67;;;21.80;72.10;;;;;;5053662;28;20551;-58
2023/05/16 00:32:14;;;;;;;15.20;14.80;;;21.80;72.20;;;;;;5066057;28;20489;-57
2023/05/16 00:34:41;;;;;;;16.00;15.30;;;21.70;72.10;;;;;;5073322;28;20515;-57
2023/05/16 00:37:07;;;;;;;14.93;14.53;;;21.70;72.20;;;;;;5073542;28;20483;-58
2023/05/16 00:39:34;;;;;;;16.10;15.53;;;21.70;72.20;;;;;;5073390;28;20505;-58
2023/05/16 00:42:03;;;;;;;15.67;15.07;;;21.70;72.20;;;;;;5062684;28;20867;-56
2023/05/16 00:44:30;;;;;;;15.60;15.10;;;21.70;72.20;;;;;;5053204;28;20483;-59
2023/05/16 00:46:59;;;;;;;16.80;16.20;;;21.70;72.20;;;;;;5053399;28;20829;-58
2023/05/16 00:49:26;;;;;;;15.90;15.40;;;21.70;72.20;;;;;;5053198;28;20472;-60
2023/05/16 00:51:53;;;;;;;16.20;15.70;;;21.70;72.30;;;;;;5053128;28;20483;-59
2023/05/16 00:54:22;;;;;;;15.23;14.73;;;21.70;72.30;;;;;;5052831;28;20515;-58
2023/05/16 00:56:50;;;;;;;16.97;16.37;;;21.70;72.30;;;;;;5053174;28;20816;-59
2023/05/16 00:59:18;;;;;;;15.80;15.30;;;21.70;72.30;;;;;;5053109;28;20911;-58
2023/05/16 01:01:46;;;;;;;15.73;15.23;;;21.70;72.40;;;;;;5060669;28;20488;-58
2023/05/16 01:04:14;;;;;;;15.90;15.40;;;21.70;72.30;;;;;;5072756;28;20454;-57
2023/05/16 01:06:41;;;;;;;16.07;15.57;;;21.70;72.30;;;;;;5073060;28;20458;-58
2023/05/16 01:09:08;;;;;;;15.93;15.33;;;21.60;72.20;;;;;;5072846;28;20502;-57
2023/05/16 01:11:43;;;;;;;15.83;15.37;;;21.70;72.30;;;;;;5063626;28;20447;-58
2023/05/16 01:14:16;;;;;;;16.00;15.40;;;21.60;72.20;;;;;;5052633;28;20844;-58
2023/05/16 01:16:50;;;;;;;16.73;16.13;;;21.60;72.10;;;;;;5052905;28;20476;-57
2023/05/16 01:19:30;;;;;;;16.23;15.67;;;21.60;72.10;;;;;;5052277;28;20480;-57
2023/05/16 01:22:04;;;;;;;16.33;15.77;;;21.60;72.20;;;;;;5052688;28;20555;-58
2023/05/16 01:24:34;;;;;;;16.17;15.67;;;21.60;72.20;;;;;;5052665;28;20477;-55
2023/05/16 01:27:06;;;;;;;16.37;15.87;;;21.60;72.20;;;;;;5052578;28;20484;-56
2023/05/16 01:29:32;;;;;;;15.97;15.47;;;21.60;72.20;;;;;;5052257;28;20464;-59
2023/05/16 01:32:00;;;;;;;15.87;15.27;;;21.60;72.20;;;;;;5052412;28;20479;-57
2023/05/16 01:34:26;;;;;;;16.60;16.00;;;21.50;72.00;;;;;;5051989;28;20479;-58
2023/05/16 01:37:05;;;;;;;16.03;15.53;;;21.50;72.00;;;;;;5052349;28;20480;-58
2023/05/16 01:39:41;;;;;;;15.90;15.30;;;21.60;72.20;;;;;;5051976;28;20507;-56
2023/05/16 01:42:13;;;;;;;16.53;16.03;;;21.50;72.00;;;;;;5052264;28;20480;-59
2023/05/16 01:44:45;;;;;;;16.43;15.93;;;21.50;72.00;;;;;;5052064;28;20934;-57
2023/05/16 01:47:15;;;;;;;16.20;15.70;;;21.50;72.00;;;;;;5052465;28;20500;-54
2023/05/16 01:49:49;;;;;;;16.13;15.53;;;21.50;72.00;;;;;;5051819;28;20542;-57
2023/05/16 01:52:24;;;;;;;16.90;16.30;;;21.50;72.00;;;;;;5052109;28;20491;-59
2023/05/16 01:54:54;;;;;;;17.37;16.57;;;21.50;72.10;;;;;;5052238;28;20510;-58
2023/05/16 01:57:25;;;;;;;17.30;16.70;;;21.50;72.10;;;;;;5052294;28;20978;-56
2023/05/16 01:59:53;;;;;;;17.60;17.00;;;21.50;72.00;;;;;;5066828;28;20505;-59
2023/05/16 02:02:20;;;;;;;16.63;16.07;;;21.50;72.00;;;;;;5071935;28;20471;-59
2023/05/16 02:04:47;;;;;;;16.00;15.50;;;21.50;72.00;;;;;;5071905;28;20475;-58
2023/05/16 02:07:14;;;;;;;16.00;15.40;;;21.50;72.10;;;;;;5071982;28;20534;-55
2023/05/16 02:09:41;;;;;;;15.93;15.43;;;21.50;72.00;;;;;;5058168;28;21001;-56
2023/05/16 02:12:08;;;;;;;16.13;15.60;;;21.50;71.90;;;;;;5051789;28;20447;-59
2023/05/16 02:14:36;;;;;;;16.80;16.30;;;21.50;72.00;;;;;;5051455;28;20567;-58
2023/05/16 02:17:04;;;;;;;16.33;15.80;;;21.50;72.00;;;;;;5051750;28;20514;-58
2023/05/16 02:19:31;;;;;;;16.50;15.90;;;21.50;72.00;;;;;;5063120;28;20914;-58
2023/05/16 02:21:58;;;;;;;16.53;15.93;;;21.40;71.80;;;;;;5071614;28;20588;-57
2023/05/16 02:24:24;;;;;;;16.23;15.60;;;21.40;71.80;;;;;;5070533;28;20471;-59
2023/05/16 02:26:51;;;;;;;16.10;15.60;;;21.40;71.80;;;;;;5068120;28;20484;-57
2023/05/16 02:29:18;;;;;;;15.17;14.63;;;21.40;71.70;;;;;;5051370;28;20499;-59
2023/05/16 02:31:47;;;;;;;15.73;15.23;;;21.40;71.70;;;;;;5051490;28;20527;-58
2023/05/16 02:34:14;;;;;;;17.93;17.13;;;21.40;71.70;;;;;;5051223;28;20479;-58
2023/05/16 02:36:41;;;;;;;15.23;14.73;;;21.40;71.60;;;;;;5052817;28;20502;-57
2023/05/16 02:39:09;;;;;;;15.23;14.73;;;21.40;71.70;;;;;;5071429;28;20459;-58
2023/05/16 02:41:35;;;;;;;16.10;15.50;;;21.40;71.70;;;;;;5071475;28;20451;-58
2023/05/16 02:44:02;;;;;;;16.27;15.67;;;21.40;71.60;;;;;;5071174;28;20502;-60
2023/05/16 02:46:31;;;;;;;16.13;15.63;;;21.40;71.60;;;;;;5071476;28;20829;-59
2023/05/16 02:49:00;;;;;;;19.47;18.87;;;21.40;71.60;;;;;;5052176;28;20483;-58
2023/05/16 02:51:28;;;;;;;17.07;16.37;;;21.30;71.40;;;;;;5051442;28;20863;-58
2023/05/16 02:53:58;;;;;;;16.97;16.37;;;21.40;71.60;;;;;;5051009;28;20452;-58
2023/05/16 02:56:25;;;;;;;16.70;16.10;;;21.40;71.60;;;;;;5051331;28;20452;-57
2023/05/16 02:58:54;;;;;;;17.10;16.30;;;21.40;71.50;;;;;;5051144;28;20459;-58
2023/05/16 03:01:21;;;;;;;16.37;15.80;;;21.30;71.40;;;;;;5051365;28;20475;-57
2023/05/16 03:03:48;;;;;;;16.33;15.73;;;21.30;71.30;;;;;;5051038;28;20476;-57
2023/05/16 03:06:16;;;;;;;17.60;16.70;;;21.30;71.30;;;;;;5051131;28;20482;-59
2023/05/16 03:08:43;;;;;;;18.30;17.67;;;21.30;71.30;;;;;;5050931;28;20894;-57
2023/05/16 03:11:10;;;;;;;16.80;16.30;;;21.30;71.40;;;;;;5051144;28;20878;-58
2023/05/16 03:13:37;;;;;;;16.83;16.23;;;21.30;71.20;;;;;;5050937;28;20476;-58
2023/05/16 03:16:04;;;;;;;18.47;17.70;;;21.30;71.20;;;;;;5050755;28;20515;-57
2023/05/16 03:18:32;;;;;;;17.43;16.50;;;21.30;71.20;;;;;;5051339;28;20474;-58
2023/05/16 03:20:58;;;;;;;17.70;17.00;;;21.30;71.10;;;;;;5051106;28;20546;-57
2023/05/16 03:23:27;;;;;;;17.70;17.00;;;21.30;71.10;;;;;;5056096;28;20494;-57
2023/05/16 03:25:55;;;;;;;17.37;16.77;;;21.30;71.10;;;;;;5070967;28;20443;-58
2023/05/16 03:28:21;;;;;;;17.90;17.20;;;21.30;70.90;;;;;;5070920;28;20474;-59
2023/05/16 03:30:48;;;;;;;17.10;16.50;;;21.20;70.80;;;;;;5070905;28;20498;-58
2023/05/16 03:33:15;;;;;;;16.50;15.97;;;21.20;70.90;;;;;;5052861;28;20487;-57
2023/05/16 03:35:43;;;;;;;17.07;16.47;;;21.20;70.90;;;;;;5052928;28;20518;-58
2023/05/16 03:38:10;;;;;;;17.47;16.90;;;21.20;70.80;;;;;;5054524;28;20475;-56
2023/05/16 03:40:40;;;;;;;17.23;16.63;;;21.20;70.70;;;;;;5054453;28;20555;-57
2023/05/16 03:43:06;;;;;;;17.53;16.80;;;21.20;70.50;;;;;;5054433;28;20486;-58
2023/05/16 03:45:34;;;;;;;17.20;16.60;;;21.20;70.60;;;;;;5054425;28;20527;-58
2023/05/16 03:48:01;;;;;;;17.33;16.73;;;21.20;70.60;;;;;;5054524;28;20506;-58
2023/05/16 03:50:27;;;;;;;17.70;17.00;;;21.20;70.50;;;;;;5054509;28;21024;-58
2023/05/16 03:52:54;;;;;;;17.43;16.83;;;21.20;70.50;;;;;;5053889;28;20486;-57
2023/05/16 03:55:21;;;;;;;17.60;16.90;;;21.20;70.40;;;;;;5054187;28;20534;-58
2023/05/16 03:57:51;;;;;;;17.17;16.47;;;21.20;70.40;;;;;;5054274;28;20515;-57
2023/05/16 04:00:18;;;;;;;16.83;16.23;;;21.20;70.30;;;;;;5054269;28;20541;-58
2023/05/16 04:02:45;;;;;;;16.47;15.97;;;21.20;70.20;;;;;;5066440;28;20475;-57
2023/05/16 04:05:12;;;;;;;18.20;17.50;;;21.20;70.20;;;;;;5062562;28;20535;-58
2023/05/16 04:07:39;;;;;;;16.70;16.10;;;21.10;70.00;;;;;;5054167;28;20539;-58
2023/05/16 04:10:07;;;;;;;18.47;17.73;;;21.10;69.80;;;;;;5054049;28;20526;-56
2023/05/16 04:12:34;;;;;;;18.13;17.33;;;21.10;69.70;;;;;;5064520;28;20479;-57
2023/05/16 04:15:02;;;;;;;17.80;17.00;;;21.10;69.70;;;;;;5062620;28;20566;-58
2023/05/16 04:17:30;;;;;;;17.27;16.57;;;21.10;69.60;;;;;;5059359;28;20444;-57
2023/05/16 04:19:57;;;;;;;17.87;17.07;;;21.20;70.50;;;;;;5070631;28;20482;-55
2023/05/16 04:22:24;;;;;;;17.43;16.73;;;21.10;69.60;;;;;;5073779;28;20871;-54
2023/05/16 04:24:51;;;;;;;16.57;15.97;;;21.10;69.80;;;;;;5073937;28;20998;-58
2023/05/16 04:27:18;;;;;;;18.20;17.50;;;21.10;69.70;;;;;;5073816;28;20471;-52
2023/05/16 04:29:45;;;;;;;17.07;16.37;;;21.10;69.60;;;;;;5073513;28;20506;-53
2023/05/16 04:32:14;;;;;;;18.23;17.43;;;21.20;69.70;;;;;;5073522;28;20470;-54
2023/05/16 04:34:43;;;;;;;17.53;16.90;;;21.10;69.60;;;;;;5073357;28;20490;-53
2023/05/16 04:37:10;;;;;;;18.93;18.23;;;21.10;69.60;;;;;;5073771;28;20447;-53
2023/05/16 04:39:38;;;;;;;18.80;18.10;;;21.10;69.60;;;;;;5073418;28;20520;-53
2023/05/16 04:42:05;;;;;;;18.07;17.33;;;21.10;70.30;;;;;;5073479;28;20443;-52
2023/05/16 04:44:33;;;;;;;17.77;17.07;;;21.10;69.70;;;;;;5073161;28;20447;-57
2023/05/16 04:47:00;;;;;;;18.20;17.50;;;21.10;69.80;;;;;;5072381;28;20816;-54
2023/05/16 04:49:28;;;;;;;17.50;16.80;;;21.10;69.70;;;;;;5073113;28;20891;-52
2023/05/16 04:51:55;;;;;;;18.60;17.80;;;21.10;69.80;;;;;;5073111;28;20984;-52
2023/05/16 04:54:22;;;;;;;18.10;17.50;;;21.10;69.80;;;;;;5073038;28;20846;-53
2023/05/16 04:56:49;;;;;;;17.93;17.30;;;21.10;69.90;;;;;;5073192;28;20475;-52
2023/05/16 04:59:16;;;;;;;17.90;17.27;;;21.10;69.90;;;;;;5073007;28;20502;-57
2023/05/16 05:01:43;;;;;;;18.60;17.90;;;21.10;70.00;;;;;;5073051;28;20447;-52
2023/05/16 05:04:10;;;;;;;18.77;18.07;;;21.10;69.90;;;;;;5072722;28;20479;-53
2023/05/16 05:06:38;;;;;;;18.33;17.53;;;21.10;70.00;;;;;;5072924;28;20481;-52
2023/05/16 05:09:05;;;;;;;17.93;17.10;;;21.10;70.00;;;;;;5072880;28;20447;-53
2023/05/16 05:11:32;;;;;;;18.20;17.60;;;21.10;70.00;;;;;;5072929;28;20625;-55
2023/05/16 05:13:59;;;;;;;18.87;18.10;;;21.10;70.00;;;;;;5072604;28;20485;-53
2023/05/16 05:16:26;;;;;;;18.80;18.20;;;21.10;70.00;;;;;;5072784;28;20483;-53
2023/05/16 05:18:53;;;;;;;18.53;17.73;;;21.10;70.00;;;;;;5072459;28;20448;-52
2023/05/16 05:21:20;;;;;;;20.23;19.43;;;21.10;70.00;;;;;;5072632;28;20940;-56
2023/05/16 05:23:49;;;;;;;18.47;17.77;;;21.10;70.00;;;;;;5072410;28;20941;-53
2023/05/16 05:26:16;;;;;;;17.70;17.10;;;21.00;70.00;;;;;;5072475;28;20448;-52
2023/05/16 05:28:43;;;;;;;18.00;17.20;;;21.00;70.00;;;;;;5072469;28;20443;-55
2023/05/16 05:31:10;;;;;;;17.97;17.40;;;21.00;70.00;;;;;;5072466;28;20459;-53
2023/05/16 05:33:37;;;;;;;18.60;17.60;;;21.00;70.10;;;;;;5072148;28;20496;-55
2023/05/16 05:36:05;;;;;;;17.97;17.27;;;21.00;70.10;;;;;;5072310;28;20514;-54
2023/05/16 05:38:32;;;;;;;18.90;18.10;;;21.00;70.10;;;;;;5072307;28;20490;-54
2023/05/16 05:41:00;;;;;;;18.40;17.80;;;21.00;70.10;;;;;;5072173;28;20490;-51
2023/05/16 05:43:27;;;;;;;18.73;17.90;;;21.00;70.10;;;;;;5072230;28;20526;-58
2023/05/16 05:45:54;;;;;;;18.73;17.63;;;21.00;70.10;;;;;;5072223;28;20469;-53
2023/05/16 05:48:21;;;;;;;18.70;18.00;;;21.00;70.00;;;;;;5072164;28;20448;-53
2023/05/16 05:50:48;;;;;;;18.90;18.20;;;21.00;70.00;;;;;;5072086;28;20971;-55
2023/05/16 05:53:15;;;;;;;18.87;18.17;;;21.00;70.00;;;;;;5071932;28;20490;-57
2023/05/16 05:55:42;;;;;;;18.70;18.00;;;21.00;69.90;;;;;;5071846;28;20533;-52
2023/05/16 05:58:10;;;;;;;18.43;17.70;;;21.00;69.90;;;;;;5072035;28;20471;-52
2023/05/16 06:00:37;;;;;;;17.73;17.13;;;21.00;69.80;;;;;;5071861;28;20502;-53
2023/05/16 06:03:04;;;;;;;18.67;17.97;;;21.00;69.90;;;;;;5071641;28;20479;-56
2023/05/16 06:05:31;;;;;;;18.07;17.47;;;21.00;70.00;;;;;;5071867;28;20478;-52
2023/05/16 06:07:58;;;;;;;19.03;18.00;;;21.00;70.10;;;;;;5071783;28;20494;-57
2023/05/16 06:10:25;;;;;;;18.13;17.33;;;21.00;70.00;;;;;;5071696;28;20505;-53
2023/05/16 06:12:52;;;;;;;19.03;18.30;;;21.00;69.90;;;;;;5071734;28;20574;-55
2023/05/16 06:15:20;;;;;;;20.20;19.33;;;21.00;69.80;;;;;;5071897;28;20570;-56
2023/05/16 06:17:47;;;;;;;18.53;18.00;;;21.00;69.80;;;;;;5071713;28;20478;-57
2023/05/16 06:20:14;;;;;;;18.77;18.13;;;21.00;69.80;;;;;;5071657;28;20507;-53
2023/05/16 06:22:40;;;;;;;18.53;17.93;;;21.00;69.80;;;;;;5071702;28;20486;-57
2023/05/16 06:25:08;;;;;;;18.87;18.10;;;21.00;69.80;;;;;;5071607;28;20471;-57
2023/05/16 06:27:35;;;;;;;19.30;18.60;;;20.90;69.70;;;;;;5071667;28;20888;-57
2023/05/16 06:30:02;;;;;;;18.87;18.27;;;20.90;69.80;;;;;;5071521;28;20495;-57
2023/05/16 06:32:30;;;;;;;20.37;19.47;;;20.90;69.80;;;;;;5071429;28;20486;-59
2023/05/16 06:34:57;;;;;;;19.27;18.57;;;20.90;69.80;;;;;;5071393;28;20447;-58
2023/05/16 06:37:24;;;;;;;18.83;18.23;;;20.90;69.80;;;;;;5071536;28;20865;-57
2023/05/16 06:39:51;;;;;;;17.83;17.23;;;20.90;69.80;;;;;;5071425;28;20528;-57
2023/05/16 06:42:19;;;;;;;19.43;18.67;;;21.00;69.80;;;;;;5071669;28;20507;-59
2023/05/16 06:44:46;;;;;;;18.60;17.80;;;20.90;69.60;;;;;;5071336;28;20447;-55
2023/05/16 06:47:13;;;;;;;18.60;17.90;;;20.90;69.70;;;;;;5071327;28;20482;-57
2023/05/16 06:49:41;;;;;;;18.93;18.23;;;20.90;70.50;;;;;;5071234;28;20499;-55
2023/05/16 06:52:08;;;;;;;18.27;17.60;;;20.90;69.80;;;;;;5071436;28;20545;-53
2023/05/16 06:54:35;;;;;;;18.50;17.90;;;20.90;69.80;;;;;;5071151;28;20451;-55
2023/05/16 06:57:03;;;;;;;19.07;18.37;;;20.90;69.90;;;;;;5071247;28;20493;-55
2023/05/16 06:59:30;;;;;;;17.90;17.30;;;20.90;69.90;;;;;;5071173;28;20474;-55
2023/05/16 07:01:57;;;;;;;17.63;17.13;;;20.90;69.90;;;;;;5071242;28;20443;-53
2023/05/16 07:04:24;;;;;;;18.33;17.63;;;20.90;69.80;;;;;;5071067;28;20479;-53
2023/05/16 07:06:52;;;;;;;18.70;18.10;;;20.90;69.80;;;;;;5071214;28;20440;-52
2023/05/16 07:09:19;;;;;;;19.43;18.53;;;20.90;69.90;;;;;;5071093;28;20526;-53
2023/05/16 07:11:46;;;;;;;18.60;18.00;;;20.90;69.90;;;;;;5075075;28;20455;-53
2023/05/16 07:14:13;;;;;;;18.37;17.77;;;20.90;69.90;;;;;;5074797;28;20813;-54
2023/05/16 07:16:40;;;;;;;18.90;18.20;;;20.90;70.00;;;;;;5074983;28;20510;-54
2023/05/16 07:19:07;;;;;;;19.40;18.80;;;20.90;70.00;;;;;;5074938;28;20475;-53
2023/05/16 07:21:34;;;;;;;18.30;17.67;;;20.90;69.90;;;;;;5074996;28;20449;-55
2023/05/16 07:24:02;;;;;;;18.37;17.77;;;20.90;69.80;;;;;;5074699;28;20473;-54
2023/05/16 07:26:29;;;;;;;18.70;17.87;;;20.90;69.70;;;;;;5074862;28;20474;-57
2023/05/16 07:28:57;;;;;;;18.83;18.23;;;20.90;69.60;;;;;;5074586;28;20940;-53
2023/05/16 07:31:24;;;;;;;18.60;18.00;;;20.90;69.70;;;;;;5074599;28;20494;-57
2023/05/16 07:33:51;;;;;;;18.90;18.20;;;20.90;69.70;;;;;;5074517;28;20494;-57
2023/05/16 07:36:17;;;;;;;18.13;17.53;;;20.80;69.50;;;;;;5074594;28;20557;-53
2023/05/16 07:38:45;;;;;;;19.60;18.90;;;20.90;69.60;;;;;;5074699;28;20470;-53
2023/05/16 07:41:13;;;;;;;18.53;17.93;;;20.80;69.50;;;;;;5074578;28;20467;-53
2023/05/16 07:43:40;;;;;;;18.80;18.10;;;20.90;69.70;;;;;;5074349;28;20486;-57
2023/05/16 07:46:07;;;;;;;18.67;17.97;;;20.90;69.70;;;;;;5074644;28;20539;-54
2023/05/16 07:48:34;;;;;;;18.50;17.90;;;20.80;69.60;;;;;;5074740;28;20463;-52
2023/05/16 07:51:01;;;;;;;19.07;18.43;;;20.80;69.60;;;;;;5074349;28;20574;-55
2023/05/16 07:53:28;;;;;;;19.10;18.50;;;20.80;69.60;;;;;;5074221;28;20486;-55
2023/05/16 07:55:55;;;;;;;17.77;17.27;;;20.90;69.80;;;;;;5074395;28;21011;-53
2023/05/16 07:58:23;;;;;;;19.50;18.80;;;20.80;69.60;;;;;;5074547;28;20450;-54
2023/05/16 08:00:50;;;;;;;18.70;18.00;;;20.80;69.60;;;;;;5074126;28;20502;-52
2023/05/16 08:03:17;;;;;;;18.80;18.10;;;20.80;69.60;;;;;;5073897;28;20951;-57
2023/05/16 08:05:44;;;;;;;18.17;17.67;;;20.80;69.60;;;;;;5074173;28;20482;-54
2023/05/16 08:08:11;;;;;;;18.60;18.00;;;20.90;69.60;;;;;;5074122;28;20948;-54
2023/05/16 08:10:38;;;;;;;18.17;17.57;;;20.80;69.50;;;;;;5073911;28;20509;-51
2023/05/16 08:13:05;;;;;;;17.83;17.13;;;20.80;69.40;;;;;;5073810;28;20479;-53
2023/05/16 08:15:33;;;;;;;19.37;18.73;;;20.80;69.40;;;;;;5073764;28;20447;-52
2023/05/16 08:18:00;;;;;;;19.53;18.77;;;20.80;69.50;;;;;;5073881;28;20452;-51
2023/05/16 08:20:27;;;;;;;18.13;17.53;;;20.80;69.50;;;;;;5073496;28;20483;-55
2023/05/16 08:22:54;;;;;;;18.60;18.00;;;20.80;69.60;;;;;;5072669;28;20485;-54
2023/05/16 08:25:21;;;;;;;18.30;17.70;;;20.80;69.60;;;;;;5073822;28;20968;-56
2023/05/16 08:27:49;;;;;;;18.20;17.50;;;20.80;69.50;;;;;;5073688;28;20943;-52
2023/05/16 08:30:16;;;;;;;17.23;16.53;;;20.80;69.40;;;;;;5073499;28;20506;-53
2023/05/16 08:32:45;;;;;;;18.00;17.40;;;20.80;69.30;;;;;;5073456;28;20503;-56
2023/05/16 08:35:12;;;;;;;18.10;17.50;;;20.80;69.30;;;;;;5073580;28;20837;-54
2023/05/16 08:37:39;;;;;;;17.50;17.00;;;20.80;69.30;;;;;;5073426;28;20992;-53
2023/05/16 08:40:09;;;;;;;17.20;16.70;;;20.80;69.20;;;;;;5073415;28;20509;-56
2023/05/16 08:42:37;;;;;;;17.77;17.17;;;20.80;69.20;;;;;;5073277;28;20454;-56
2023/05/16 08:45:05;;;;;;;16.70;16.10;;;20.80;69.20;;;;;;5073288;28;20528;-54
2023/05/16 08:47:33;;;;;;;17.67;17.07;;;20.80;69.20;;;;;;5073308;28;20444;-56
2023/05/16 08:50:03;;;;;;;17.80;17.20;;;20.80;69.30;;;;;;5073143;28;20475;-55
2023/05/16 08:52:32;;;;;;;18.40;17.80;;;20.80;69.20;;;;;;5073186;28;20447;-52
2023/05/16 08:55:04;;;;;;;18.50;17.70;;;20.80;69.40;;;;;;5073150;28;20960;-52
2023/05/16 08:57:32;;;;;;;18.03;17.30;;;20.80;69.30;;;;;;5073458;28;20479;-52
2023/05/16 09:00:00;;;;;;;19.47;18.87;;;20.80;69.20;;;;;;5072991;28;20471;-53
2023/05/16 09:02:28;;;;;;;18.20;17.70;;;20.80;69.10;;;;;;5072955;28;20869;-53
2023/05/16 09:04:57;;;;;;;18.50;17.83;;;20.80;68.90;;;;;;5072941;28;20483;-54
2023/05/16 09:07:25;;;;;;;18.70;18.07;;;20.80;68.80;;;;;;5073304;28;20458;-55
2023/05/16 09:09:52;;;;;;;18.57;17.97;;;20.80;68.80;;;;;;5072872;28;20495;-53
2023/05/16 09:12:20;;;;;;;18.87;18.27;;;20.80;68.80;;;;;;5072960;28;20548;-55
2023/05/16 09:14:47;;;;;;;18.20;17.60;;;20.80;68.70;;;;;;5072735;28;20450;-54
2023/05/16 09:17:14;;;;;;;18.50;17.97;;;20.80;68.70;;;;;;5072835;28;20487;-53
2023/05/16 09:19:43;;;;;;;18.63;18.03;;;20.80;68.60;;;;;;5072631;28;20479;-53
2023/05/16 09:22:12;;;;;;;18.57;17.80;;;20.80;68.70;;;;;;5072726;28;20504;-52
2023/05/16 09:24:41;;;;;;;18.10;17.50;;;20.80;68.80;;;;;;5072448;28;20482;-57
2023/05/16 09:27:09;;;;;;;18.17;17.57;;;20.80;68.80;;;;;;5072536;28;20952;-57
2023/05/16 09:29:36;;;;;;;17.70;17.20;;;20.80;68.70;;;;;;5072277;28;20507;-57
2023/05/16 09:32:10;;;;;;;17.60;17.00;;;20.80;68.60;;;;;;5072283;28;20896;-56
2023/05/16 09:34:39;;;;;;;18.10;17.50;;;20.80;68.70;;;;;;5072139;28;20485;-56
2023/05/16 09:37:06;;;;;;;17.90;17.30;;;20.80;68.60;;;;;;5072301;28;20490;-52
2023/05/16 09:39:33;;;;;;;18.63;18.03;;;20.80;68.60;;;;;;5072551;28;20467;-52
2023/05/16 09:42:02;;;;;;;18.93;18.33;;;20.80;68.60;;;;;;5072267;28;20471;-54
2023/05/16 09:44:29;;;;;;;18.10;17.60;;;20.80;68.50;;;;;;5072081;28;20466;-53
2023/05/16 09:46:56;;;;;;;18.67;18.07;;;20.70;68.40;;;;;;5072185;28;20546;-54
2023/05/16 09:49:23;;;;;;;17.90;17.40;;;20.70;68.40;;;;;;5072105;28;20494;-53
2023/05/16 09:51:51;;;;;;;18.60;18.00;;;20.70;68.30;;;;;;5072306;28;20443;-55
2023/05/16 09:54:30;;;;;;;19.23;18.70;;;20.80;68.40;;;;;;5071820;28;20497;-55
2023/05/16 09:56:57;;;;;;;17.90;17.40;;;20.80;68.50;;;;;;5072091;28;20475;-56
2023/05/16 09:59:25;;;;;;;18.07;17.50;;;20.70;68.40;;;;;;5071803;28;20502;-55
2023/05/16 10:01:54;;;;;;;18.93;18.33;;;20.70;68.40;;;;;;5071909;28;20478;-53
2023/05/16 10:04:20;;;;;;;18.53;17.83;;;20.70;68.30;;;;;;5071710;28;20831;-55
2023/05/16 10:06:49;;;;;;;17.60;17.10;;;20.80;68.40;;;;;;5071803;28;20467;-52
2023/05/16 10:09:17;;;;;;;17.90;17.20;;;20.70;68.20;;;;;;5071656;28;20984;-56
2023/05/16 10:11:48;;;;;;;17.40;16.90;;;20.70;68.10;;;;;;5071762;28;20496;-53
2023/05/16 10:14:18;;;;;;;19.00;18.40;;;20.70;68.10;;;;;;5071599;28;20447;-56
2023/05/16 10:16:48;;;;;;;18.47;17.87;;;20.70;68.10;;;;;;5071695;28;20479;-54
2023/05/16 10:19:17;;;;;;;18.67;17.90;;;20.70;68.20;;;;;;5096807;22;20475;-51
2023/05/16 10:21:51;;;;;;;19.30;18.60;;;20.70;68.20;;;;;;5039078;28;20500;-55
2023/05/16 10:24:23;;;;;;;18.93;18.33;;;20.70;68.10;;;;;;5049907;28;20447;-52
2023/05/16 10:26:52;;;;;;;18.80;18.10;;;20.70;67.90;;;;;;5051441;28;20594;-54
2023/05/16 10:29:20;;;;;;;20.00;19.27;;;20.80;68.00;;;;;;5051312;28;20460;-52
2023/05/16 10:31:49;;;;;;;18.50;17.80;;;20.70;67.80;;;;;;5051399;28;20854;-53
2023/05/16 10:34:17;;;;;;;18.30;17.70;;;20.70;67.90;;;;;;5051420;28;20526;-51
2023/05/16 10:36:45;;;;;;;18.17;17.57;;;20.70;67.90;;;;;;5051363;28;20476;-52
2023/05/16 10:39:14;;;;;;;18.43;17.83;;;20.80;67.90;;;;;;5051373;28;20502;-51
2023/05/16 10:41:42;;;;;;;18.90;18.30;;;20.70;67.70;;;;;;5051229;28;20452;-56
2023/05/16 10:44:15;;;;;;;18.57;18.00;;;20.70;67.70;;;;;;5050414;28;20531;-50
2023/05/16 10:46:42;;;;;;;18.43;17.87;;;20.80;68.60;;;;;;5051344;28;20452;-51
2023/05/16 10:49:25;;;;;;;19.30;18.50;;;20.70;67.80;;;;;;5051217;28;20852;-54
2023/05/16 10:52:07;;;;;;;19.03;18.33;;;20.70;67.80;;;;;;5051441;28;20440;-51
2023/05/16 10:54:35;;;;;;;19.77;19.07;;;20.70;67.80;;;;;;5050879;28;20906;-54
2023/05/16 10:57:06;;;;;;;19.30;18.70;;;20.70;67.80;;;;;;5051037;28;20531;-51
2023/05/16 10:59:41;;;;;;;19.53;18.83;;;20.70;67.90;;;;;;5051119;28;20464;-52
2023/05/16 11:02:27;;;;;;;18.93;18.33;;;20.70;67.80;;;;;;5051122;28;20454;-51
2023/05/16 11:04:58;;;;;;;19.47;18.87;;;20.70;67.70;;;;;;5051076;28;20941;-52
2023/05/16 11:07:26;;;;;;;20.43;19.53;;;20.70;67.70;;;;;;5051037;28;20463;-52
2023/05/16 11:10:10;;;;;;;19.40;18.80;;;20.70;67.70;;;;;;5050925;28;20507;-51
2023/05/16 11:12:38;;;;;;;18.00;17.50;;;20.70;67.80;;;;;;5050671;28;20567;-51
2023/05/16 11:15:23;;;;;;;17.47;16.97;;;20.70;67.80;;;;;;5050987;28;20444;-51
2023/05/16 11:17:50;;;;;;;19.13;18.53;;;20.70;67.80;;;;;;5050865;28;20544;-55
2023/05/16 11:20:30;;;;;;;18.60;18.00;;;20.70;67.70;;;;;;5050905;28;20506;-52
2023/05/16 11:23:25;;;;;;;18.07;17.50;;;20.70;67.60;;;;;;5050771;28;20479;-58
2023/05/16 11:25:55;;;;;;;18.00;17.50;;;20.70;67.50;;;;;;5050820;28;20872;-57
2023/05/16 11:28:24;;;;;;;18.47;17.83;;;20.70;67.50;;;;;;5050833;28;20472;-54
2023/05/16 11:30:54;;;;;;;18.43;17.80;;;20.70;67.60;;;;;;5050885;28;20464;-52
2023/05/16 11:33:22;;;;;;;18.60;18.00;;;20.70;67.60;;;;;;5050706;28;20446;-54
2023/05/16 11:36:04;;;;;;;18.27;17.67;;;20.70;67.60;;;;;;5051048;28;20531;-52
2023/05/16 11:38:32;;;;;;;19.40;18.60;;;20.70;67.60;;;;;;5050658;28;20562;-51
2023/05/16 11:41:07;;;;;;;18.70;18.20;;;20.70;67.60;;;;;;5050716;28;20475;-55
2023/05/16 11:43:42;;;;;;;18.03;17.27;;;20.70;67.60;;;;;;5050386;28;20451;-52
2023/05/16 11:46:11;;;;;;;18.70;18.20;;;20.80;67.60;;;;;;5050689;28;20443;-51
2023/05/16 11:48:38;;;;;;;17.97;17.37;;;20.70;67.50;;;;;;5050698;28;20491;-52
2023/05/16 11:51:07;;;;;;;18.30;17.80;;;20.80;67.70;;;;;;5050558;28;20614;-51
2023/05/16 11:53:34;;;;;;;18.37;17.77;;;20.80;67.70;;;;;;5050410;28;20529;-55
2023/05/16 11:56:02;;;;;;;18.00;17.50;;;20.80;67.70;;;;;;5051663;28;20479;-56
2023/05/16 11:58:29;;;;;;;18.43;17.83;;;20.80;67.60;;;;;;5054061;28;20479;-53
2023/05/16 12:00:56;;;;;;;18.70;18.10;;;20.80;67.70;;;;;;5054022;28;20894;-57
2023/05/16 12:03:23;;;;;;;19.13;18.57;;;20.80;67.60;;;;;;5053835;28;21006;-56
2023/05/16 12:05:52;;;;;;;18.90;18.30;;;20.80;67.60;;;;;;5054039;28;20949;-51
2023/05/16 12:08:22;;;;;;;18.30;17.70;;;20.80;67.50;;;;;;5053964;28;20452;-52
2023/05/16 12:10:50;;;;;;;17.90;17.40;;;20.80;67.50;;;;;;5053928;28;20841;-55
2023/05/16 12:13:18;;;;;;;18.10;17.50;;;20.80;67.30;;;;;;5053784;28;20817;-54
2023/05/16 12:15:45;;;;;;;18.27;17.77;;;20.80;67.30;;;;;;5053924;28;20482;-53
2023/05/16 12:18:13;;;;;;;18.80;18.20;;;20.80;67.30;;;;;;5053693;28;21091;-52
2023/05/16 12:20:40;;;;;;;18.43;17.83;;;20.80;67.20;;;;;;5053594;28;20574;-51
2023/05/16 12:23:11;;;;;;;18.07;17.47;;;20.80;67.10;;;;;;5053568;28;20801;-51
2023/05/16 12:25:42;;;;;;;17.50;17.00;;;20.80;67.10;;;;;;5053560;28;20813;-53
2023/05/16 12:28:11;;;;;;;18.47;17.80;;;20.80;67.00;;;;;;5053674;28;20529;-53
2023/05/16 12:30:41;;;;;;;17.77;17.17;;;20.80;67.00;;;;;;5053466;28;20589;-57
2023/05/16 12:33:09;;;;;;;18.20;17.60;;;20.80;66.90;;;;;;5053258;28;20451;-56